createdAt,value
2022-10-17T00:00:53.576Z,2.67
2022-10-17T00:03:21.068Z,2.50
2022-10-17T00:05:49.541Z,2.40
2022-10-17T00:08:19.468Z,2.77
2022-10-17T00:10:47.515Z,2.87
2022-10-17T00:13:15.054Z,2.63
2022-10-17T00:15:44.333Z,2.90
2022-10-17T00:18:11.810Z,3.47
2022-10-17T00:20:39.281Z,2.83
2022-10-17T00:23:06.789Z,3.67
2022-10-17T00:25:36.421Z,3.20
2022-10-17T00:28:04.011Z,4.00
2022-10-17T00:30:32.743Z,3.73
2022-10-17T00:33:00.202Z,3.00
2022-10-17T00:35:27.754Z,3.30
2022-10-17T00:37:55.244Z,3.63
2022-10-17T00:40:22.932Z,3.40
2022-10-17T00:42:53.096Z,3.30
2022-10-17T00:45:23.711Z,3.50
2022-10-17T00:47:54.986Z,3.40
2022-10-17T00:50:23.028Z,3.97
2022-10-17T00:52:50.531Z,3.93
2022-10-17T00:55:21.576Z,4.20
2022-10-17T00:57:49.375Z,3.67
2022-10-17T01:00:19.292Z,3.63
2022-10-17T01:02:47.142Z,4.10
2022-10-17T01:05:15.783Z,4.10
2022-10-17T01:07:44.269Z,4.07
2022-10-17T01:10:12.232Z,3.20
2022-10-17T01:12:49.603Z,4.37
2022-10-17T01:15:26.627Z,3.97
2022-10-17T01:18:03.274Z,4.20
2022-10-17T01:20:53.526Z,3.33
2022-10-17T01:23:31.834Z,4.00
2022-10-17T01:26:06.316Z,3.57
2022-10-17T01:29:01.282Z,3.80
2022-10-17T01:31:33.630Z,3.60
2022-10-17T01:34:04.495Z,4.07
2022-10-17T01:36:38.031Z,4.40
2022-10-17T01:39:13.557Z,3.63
2022-10-17T01:41:43.686Z,4.43
2022-10-17T01:44:14.469Z,3.63
2022-10-17T01:46:44.868Z,3.73
2022-10-17T01:49:14.427Z,4.10
2022-10-17T01:51:44.283Z,5.00
2022-10-17T01:54:14.493Z,4.37
2022-10-17T01:56:43.132Z,4.00
2022-10-17T01:59:13.712Z,4.93
2022-10-17T02:01:44.478Z,4.07
2022-10-17T02:04:12.502Z,4.60
2022-10-17T02:06:40.268Z,4.07
2022-10-17T02:09:19.005Z,3.80
2022-10-17T02:11:53.737Z,4.40
2022-10-17T02:14:26.833Z,4.00
2022-10-17T02:17:03.960Z,4.57
2022-10-17T02:19:37.098Z,4.60
2022-10-17T02:22:16.987Z,4.90
2022-10-17T02:24:49.054Z,4.30
2022-10-17T02:27:18.809Z,4.47
2022-10-17T02:29:49.961Z,3.70
2022-10-17T02:32:23.005Z,4.10
2022-10-17T02:34:52.129Z,3.90
2022-10-17T02:37:24.449Z,3.93
2022-10-17T02:39:52.309Z,3.80
2022-10-17T02:42:22.829Z,4.40
2022-10-17T02:44:50.447Z,4.57
2022-10-17T02:47:24.328Z,3.73
2022-10-17T02:49:52.877Z,3.67
2022-10-17T02:52:26.581Z,4.03
2022-10-17T02:54:57.880Z,6.00
2022-10-17T02:57:29.553Z,4.80
2022-10-17T02:59:58.685Z,4.60
2022-10-17T03:02:27.886Z,4.60
2022-10-17T03:04:56.340Z,4.10
2022-10-17T03:07:23.887Z,3.53
2022-10-17T03:09:51.384Z,4.30
2022-10-17T03:12:18.865Z,3.97
2022-10-17T03:14:46.357Z,4.47
2022-10-17T03:17:13.849Z,3.80
2022-10-17T03:19:42.691Z,4.83
2022-10-17T03:22:10.175Z,4.30
2022-10-17T03:24:37.647Z,4.50
2022-10-17T03:27:05.318Z,5.43
2022-10-17T03:29:32.865Z,4.40
2022-10-17T03:32:00.417Z,4.33
2022-10-17T03:34:28.518Z,5.10
2022-10-17T03:36:57.353Z,5.17
2022-10-17T03:39:25.106Z,4.07
2022-10-17T03:41:52.563Z,5.00
2022-10-17T03:44:20.065Z,3.60
2022-10-17T03:46:47.514Z,4.63
2022-10-17T03:49:15.005Z,3.83
2022-10-17T03:51:42.485Z,4.13
2022-10-17T03:54:11.326Z,4.70
2022-10-17T03:56:38.809Z,4.30
2022-10-17T03:59:07.748Z,4.77
2022-10-17T04:01:35.321Z,3.60
2022-10-17T04:04:02.867Z,4.00
2022-10-17T04:06:30.345Z,4.03
2022-10-17T04:08:57.814Z,3.83
2022-10-17T04:11:26.648Z,4.67
2022-10-17T04:13:55.414Z,3.83
2022-10-17T04:16:23.530Z,3.67
2022-10-17T04:18:54.161Z,4.90
2022-10-17T04:21:22.168Z,5.00
2022-10-17T04:23:49.623Z,4.30
2022-10-17T04:26:17.133Z,4.93
2022-10-17T04:28:45.928Z,4.37
2022-10-17T04:31:15.087Z,4.00
2022-10-17T04:33:43.109Z,3.97
2022-10-17T04:36:13.270Z,4.07
2022-10-17T04:38:41.096Z,4.33
2022-10-17T04:41:11.578Z,4.67
2022-10-17T04:43:40.141Z,4.53
2022-10-17T04:46:10.205Z,4.40
2022-10-17T04:48:38.061Z,4.13
2022-10-17T04:51:07.319Z,3.93
2022-10-17T04:53:35.824Z,4.00
2022-10-17T04:56:08.954Z,3.80
2022-10-17T04:58:36.864Z,5.90
2022-10-17T05:01:10.457Z,4.87
2022-10-17T05:03:38.168Z,5.20
2022-10-17T05:06:07.066Z,4.00
2022-10-17T05:08:34.837Z,4.60
2022-10-17T05:11:02.438Z,5.20
2022-10-17T05:13:29.923Z,4.97
2022-10-17T05:16:00.125Z,4.80
2022-10-17T05:18:29.202Z,5.50
2022-10-17T05:20:57.025Z,6.30
2022-10-17T05:23:24.473Z,5.20
2022-10-17T05:25:55.788Z,5.47
2022-10-17T05:28:23.368Z,5.00
2022-10-17T05:30:50.967Z,5.40
2022-10-17T05:33:18.587Z,5.03
2022-10-17T05:35:47.428Z,5.57
2022-10-17T05:38:14.860Z,4.90
2022-10-17T05:40:42.325Z,4.60
2022-10-17T05:43:09.809Z,4.10
2022-10-17T05:45:37.341Z,4.33
2022-10-17T05:48:05.058Z,4.13
2022-10-17T05:50:32.963Z,4.13
2022-10-17T05:53:01.899Z,4.43
2022-10-17T05:55:29.419Z,3.80
2022-10-17T05:57:58.429Z,3.63
2022-10-17T06:00:25.925Z,4.50
2022-10-17T06:02:53.500Z,4.70
2022-10-17T06:05:21.962Z,3.40
2022-10-17T06:07:52.359Z,4.00
2022-10-17T06:10:21.229Z,3.70
2022-10-17T06:12:48.817Z,3.30
2022-10-17T06:15:16.372Z,2.97
2022-10-17T06:17:43.828Z,3.90
2022-10-17T06:20:11.660Z,4.27
2022-10-17T06:22:39.156Z,4.60
2022-10-17T06:25:07.363Z,4.30
2022-10-17T06:27:36.190Z,4.17
2022-10-17T06:30:04.002Z,4.20
2022-10-17T06:32:32.279Z,4.13
2022-10-17T06:34:59.940Z,4.00
2022-10-17T06:37:28.403Z,4.57
2022-10-17T06:39:57.523Z,4.13
2022-10-17T06:42:25.067Z,4.23
2022-10-17T06:44:53.887Z,4.03
2022-10-17T06:47:21.413Z,3.73
2022-10-17T06:49:48.866Z,3.30
2022-10-17T06:52:17.082Z,3.23
2022-10-17T06:54:44.674Z,3.63
2022-10-17T06:57:13.178Z,4.43
2022-10-17T06:59:40.697Z,4.20
2022-10-17T07:02:10.025Z,4.83
2022-10-17T07:04:37.585Z,4.67
2022-10-17T07:07:05.315Z,4.90
2022-10-17T07:09:33.447Z,4.60
2022-10-17T07:12:00.974Z,3.53
2022-10-17T07:14:31.941Z,3.80
2022-10-17T07:16:59.616Z,4.00
2022-10-17T07:19:28.531Z,4.73
2022-10-17T07:21:56.070Z,3.97
2022-10-17T07:24:23.566Z,3.60
2022-10-17T07:26:51.048Z,3.83
2022-10-17T07:29:18.513Z,4.07
2022-10-17T07:31:51.260Z,3.77
2022-10-17T07:34:18.839Z,4.47
2022-10-17T07:36:47.740Z,4.93
2022-10-17T07:39:15.168Z,4.27
2022-10-17T07:41:42.633Z,4.50
2022-10-17T07:44:10.116Z,4.73
2022-10-17T07:46:37.580Z,4.93
2022-10-17T07:49:05.136Z,5.80
2022-10-17T07:51:32.650Z,4.90
2022-10-17T07:54:01.539Z,6.53
2022-10-17T07:56:29.597Z,7.10
2022-10-17T07:58:59.194Z,7.00
2022-10-17T08:01:29.065Z,7.33
2022-10-17T08:03:56.512Z,6.97
2022-10-17T08:06:23.960Z,6.47
2022-10-17T08:08:51.441Z,7.13
2022-10-17T08:11:21.195Z,8.60
2022-10-17T08:13:48.702Z,8.30
2022-10-17T08:16:16.160Z,8.23
2022-10-17T08:18:44.241Z,8.37
2022-10-17T08:21:13.173Z,9.33
2022-10-17T08:23:41.143Z,8.80
2022-10-17T08:26:10.645Z,7.83
2022-10-17T08:28:41.182Z,8.67
2022-10-17T08:31:10.414Z,8.40
2022-10-17T08:33:38.505Z,7.80
2022-10-17T08:36:07.121Z,7.37
2022-10-17T08:38:36.904Z,7.70
2022-10-17T08:41:08.373Z,8.10
2022-10-17T08:43:48.285Z,6.67
2022-10-17T08:48:49.254Z,7.07
2022-10-17T08:51:19.403Z,6.60
2022-10-17T08:53:50.022Z,8.60
2022-10-17T08:56:30.306Z,7.60
2022-10-17T08:59:12.432Z,7.50
2022-10-17T09:01:43.998Z,6.90
2022-10-17T09:04:41.852Z,6.40
2022-10-17T09:07:14.884Z,5.97
2022-10-17T09:09:48.135Z,5.87
2022-10-17T09:12:18.676Z,7.07
2022-10-17T09:15:05.608Z,6.53
2022-10-17T09:17:39.373Z,5.37
2022-10-17T09:20:11.782Z,5.90
2022-10-17T09:22:43.530Z,7.07
2022-10-17T09:25:13.781Z,6.33
2022-10-17T09:27:43.280Z,5.37
2022-10-17T09:30:43.738Z,5.13
2022-10-17T09:33:23.352Z,5.90
2022-10-17T09:36:03.245Z,5.50
2022-10-17T09:38:40.334Z,5.20
2022-10-17T09:41:42.776Z,4.97
2022-10-17T09:44:15.145Z,5.10
2022-10-17T09:46:49.462Z,4.20
2022-10-17T09:49:19.668Z,4.70
2022-10-17T09:51:47.308Z,3.90
2022-10-17T09:54:21.029Z,5.13
2022-10-17T09:56:59.345Z,4.63
2022-10-17T09:59:34.056Z,4.60
2022-10-17T10:02:20.292Z,4.60
2022-10-17T10:05:04.142Z,4.40
2022-10-17T10:07:34.536Z,4.00
2022-10-17T10:10:02.927Z,3.60
2022-10-17T10:12:33.526Z,4.43
2022-10-17T10:15:01.166Z,3.93
2022-10-17T10:17:35.697Z,3.50
2022-10-17T10:20:04.688Z,3.97
2022-10-17T10:22:32.500Z,3.77
2022-10-17T10:25:15.377Z,4.00
2022-10-17T10:27:43.765Z,3.60
2022-10-17T10:30:18.654Z,3.50
2022-10-17T10:32:49.106Z,3.37
2022-10-17T10:35:22.011Z,3.03
2022-10-17T10:37:51.434Z,3.13
2022-10-17T10:40:21.445Z,3.80
2022-10-17T10:42:51.295Z,3.10
2022-10-17T10:45:47.570Z,3.07
2022-10-17T10:48:19.753Z,3.60
2022-10-17T10:50:48.235Z,3.10
2022-10-17T10:53:31.790Z,3.00
2022-10-17T10:56:05.379Z,3.43
2022-10-17T10:58:43.017Z,2.60
2022-10-17T11:01:15.741Z,2.97
2022-10-17T11:03:54.641Z,3.37
2022-10-17T11:06:30.404Z,3.33
2022-10-17T11:09:10.896Z,3.67
2022-10-17T11:11:41.371Z,3.13
2022-10-17T11:14:14.385Z,2.60
2022-10-17T11:16:47.192Z,2.30
2022-10-17T11:19:19.621Z,3.00
2022-10-17T11:21:49.017Z,3.17
2022-10-17T11:24:22.820Z,2.50
2022-10-17T11:26:56.622Z,2.43
2022-10-17T11:29:27.794Z,2.80
2022-10-17T11:31:56.693Z,2.37
2022-10-17T11:34:27.504Z,3.20
2022-10-17T11:36:58.960Z,2.60
2022-10-17T11:39:31.468Z,2.30
2022-10-17T11:42:03.515Z,2.50
2022-10-17T11:44:35.442Z,2.10
2022-10-17T11:47:06.925Z,2.33
2022-10-17T11:49:41.105Z,3.10
2022-10-17T11:52:31.899Z,2.20
2022-10-17T11:55:12.320Z,2.87
2022-10-17T11:57:48.937Z,3.13
2022-10-17T12:00:25.924Z,2.47
2022-10-17T12:03:04.647Z,2.60
2022-10-17T12:05:40.174Z,2.37
2022-10-17T12:08:14.496Z,2.93
2022-10-17T12:10:49.889Z,2.10
2022-10-17T12:14:05.798Z,2.80
2022-10-17T12:16:48.665Z,2.33
2022-10-17T12:19:25.125Z,2.50
2022-10-17T12:21:58.847Z,2.10
2022-10-17T12:24:35.135Z,2.07
2022-10-17T12:27:23.607Z,2.37
2022-10-17T12:29:51.423Z,1.80
2022-10-17T12:32:18.878Z,2.17
2022-10-17T12:34:53.080Z,2.30
2022-10-17T12:37:57.380Z,2.47
2022-10-17T12:40:51.299Z,2.37
2022-10-17T12:43:46.697Z,1.80
2022-10-17T12:46:14.550Z,2.70
2022-10-17T12:49:22.146Z,3.50
2022-10-17T12:52:18.533Z,1.93
2022-10-17T12:55:00.304Z,2.33
2022-10-17T12:57:40.584Z,1.90
2022-10-17T13:00:17.355Z,2.30
2022-10-17T13:02:45.458Z,2.10
2022-10-17T13:05:17.851Z,2.13
2022-10-17T13:07:48.892Z,2.27
2022-10-17T13:10:21.636Z,2.00
2022-10-17T13:12:51.206Z,2.13
2022-10-17T13:15:20.317Z,3.03
2022-10-17T13:17:57.150Z,1.80
2022-10-17T13:20:31.273Z,2.40
2022-10-17T13:23:00.014Z,2.60
2022-10-17T13:25:28.948Z,1.80
2022-10-17T13:28:11.671Z,1.90
2022-10-17T13:30:39.546Z,2.03
2022-10-17T13:33:20.080Z,2.30
2022-10-17T13:36:00.081Z,2.27
2022-10-17T13:38:30.245Z,2.07
2022-10-17T13:41:06.087Z,2.67
2022-10-17T13:43:46.569Z,2.57
2022-10-17T13:46:36.821Z,2.03
2022-10-17T13:49:12.352Z,2.00
2022-10-17T13:51:44.140Z,2.70
2022-10-17T13:54:19.537Z,2.43
2022-10-17T13:56:47.019Z,2.27
2022-10-17T13:59:24.340Z,2.47
2022-10-17T14:01:52.291Z,2.20
2022-10-17T14:04:20.632Z,2.00
2022-10-17T14:06:49.616Z,2.03
2022-10-17T14:09:23.292Z,1.87
2022-10-17T14:11:59.356Z,2.27
2022-10-17T14:14:32.189Z,2.03
2022-10-17T14:17:02.090Z,2.33
2022-10-17T14:19:32.439Z,2.30
2022-10-17T14:22:17.204Z,2.07
2022-10-17T14:24:45.093Z,2.00
2022-10-17T14:27:30.620Z,1.83
2022-10-17T14:30:02.532Z,2.40
2022-10-17T14:35:24.343Z,1.83
2022-10-17T14:37:54.935Z,1.93
2022-10-17T14:40:24.145Z,2.10
2022-10-17T14:42:52.172Z,1.63
2022-10-17T14:45:27.183Z,1.80
2022-10-17T14:47:57.244Z,2.20
2022-10-17T14:50:26.393Z,2.10
2022-10-17T14:53:01.761Z,2.23
2022-10-17T14:55:31.676Z,1.83
2022-10-17T14:57:59.520Z,2.10
2022-10-17T15:00:28.942Z,2.20
2022-10-17T15:02:57.292Z,2.10
2022-10-17T15:05:25.013Z,2.40
2022-10-17T15:07:53.072Z,2.23
2022-10-17T15:10:26.613Z,1.80
2022-10-17T15:12:59.151Z,2.43
2022-10-17T15:15:33.767Z,2.50
2022-10-17T15:18:01.356Z,2.30
2022-10-17T15:20:30.368Z,3.00
2022-10-17T15:22:59.448Z,2.93
2022-10-17T15:25:28.257Z,2.30
2022-10-17T15:27:56.193Z,2.60
2022-10-17T15:30:25.485Z,2.17
2022-10-17T15:32:54.867Z,2.90
2022-10-17T15:35:23.132Z,2.97
2022-10-17T15:37:51.001Z,1.93
2022-10-17T15:40:21.254Z,2.40
2022-10-17T15:42:48.936Z,3.00
2022-10-17T15:45:17.947Z,2.53
2022-10-17T15:47:51.478Z,2.53
2022-10-17T15:50:21.694Z,2.60
2022-10-17T15:52:50.843Z,3.37
2022-10-17T15:55:19.135Z,2.50
2022-10-17T15:57:47.431Z,2.60
2022-10-17T16:00:17.567Z,3.10
2022-10-17T16:02:45.392Z,3.10
2022-10-17T16:05:16.143Z,4.30
2022-10-17T16:07:46.721Z,3.20
2022-10-17T16:10:14.691Z,3.43
2022-10-17T16:12:42.715Z,4.30
2022-10-17T16:15:14.868Z,3.50
2022-10-17T16:17:43.764Z,3.60
2022-10-17T16:20:12.491Z,3.47
2022-10-17T16:22:42.195Z,3.00
2022-10-17T16:25:20.360Z,2.60
2022-10-17T16:27:48.697Z,3.77
2022-10-17T16:30:16.579Z,3.50
2022-10-17T16:32:44.447Z,3.83
2022-10-17T16:35:17.596Z,3.30
2022-10-17T16:37:45.323Z,3.33
2022-10-17T16:40:14.578Z,3.50
2022-10-17T16:42:42.336Z,3.03
2022-10-17T16:45:11.270Z,2.73
2022-10-17T16:47:38.843Z,2.97
2022-10-17T16:50:07.281Z,2.90
2022-10-17T16:52:35.162Z,2.73
2022-10-17T16:55:02.866Z,3.10
2022-10-17T16:57:31.907Z,3.40
2022-10-17T16:59:59.648Z,2.93
2022-10-17T17:02:27.318Z,3.20
2022-10-17T17:04:54.997Z,3.63
2022-10-17T17:07:24.225Z,3.53
2022-10-17T17:09:53.656Z,3.77
2022-10-17T17:12:21.237Z,3.13
2022-10-17T17:14:50.312Z,3.50
2022-10-17T17:17:30.325Z,3.40
2022-10-17T17:20:07.567Z,3.27
2022-10-17T17:22:35.216Z,3.30
2022-10-17T17:25:02.801Z,3.27
2022-10-17T17:27:30.773Z,3.27
2022-10-17T17:29:59.923Z,3.20
2022-10-17T17:32:27.481Z,3.53
2022-10-17T17:34:55.211Z,3.10
2022-10-17T17:37:22.909Z,3.10
2022-10-17T17:39:50.564Z,3.50
2022-10-17T17:42:18.200Z,3.90
2022-10-17T17:44:45.873Z,4.00
2022-10-17T17:47:14.927Z,4.43
2022-10-17T17:49:42.474Z,4.80
2022-10-17T17:52:10.272Z,4.50
2022-10-17T17:54:40.790Z,5.63
2022-10-17T17:57:08.947Z,5.90
2022-10-17T17:59:40.372Z,5.63
2022-10-17T18:02:08.893Z,5.03
2022-10-17T18:04:37.988Z,5.50
2022-10-17T18:07:05.545Z,6.10
2022-10-17T18:09:33.169Z,6.03
2022-10-17T18:12:00.705Z,5.80
2022-10-17T18:14:28.459Z,5.67
2022-10-17T18:16:55.985Z,5.50
2022-10-17T18:19:23.694Z,5.20
2022-10-17T18:21:52.723Z,5.60
2022-10-17T18:24:20.562Z,5.50
2022-10-17T18:26:48.143Z,5.73
2022-10-17T18:29:15.971Z,5.50
2022-10-17T18:31:43.863Z,5.60
2022-10-17T18:34:11.585Z,6.90
2022-10-17T18:36:39.434Z,6.73
2022-10-17T18:39:08.356Z,7.00
2022-10-17T18:41:36.042Z,6.93
2022-10-17T18:44:03.893Z,6.50
2022-10-17T18:46:35.585Z,6.30
2022-10-17T18:49:03.966Z,7.23
2022-10-17T18:51:31.606Z,6.67
2022-10-17T18:53:59.563Z,5.70
2022-10-17T18:56:28.701Z,6.90
2022-10-17T18:58:56.532Z,5.47
2022-10-17T19:01:26.951Z,5.20
2022-10-17T19:03:56.972Z,4.00
2022-10-17T19:06:26.374Z,3.80
2022-10-17T19:08:54.480Z,4.00
2022-10-17T19:11:23.945Z,3.80
2022-10-17T19:13:53.622Z,3.97
2022-10-17T19:16:22.818Z,3.70
2022-10-17T19:18:51.299Z,3.80
2022-10-17T19:21:21.858Z,4.20
2022-10-17T19:23:51.728Z,5.13
2022-10-17T19:26:20.379Z,4.80
2022-10-17T19:28:48.700Z,3.67
2022-10-17T19:31:18.434Z,4.07
2022-10-17T19:33:46.618Z,4.50
2022-10-17T19:36:14.794Z,3.90
2022-10-17T19:38:42.391Z,4.13
2022-10-17T19:41:11.035Z,4.70
2022-10-17T19:43:40.531Z,4.93
2022-10-17T19:46:09.804Z,4.60
2022-10-17T19:48:39.127Z,4.40
2022-10-17T19:51:07.891Z,4.37
2022-10-17T19:53:36.104Z,3.90
2022-10-17T19:56:04.133Z,3.90
2022-10-17T19:58:32.115Z,4.20
2022-10-17T20:01:01.683Z,4.60
2022-10-17T20:03:29.808Z,3.93
2022-10-17T20:05:58.950Z,4.07
2022-10-17T20:11:03.929Z,4.30
2022-10-17T20:13:31.646Z,4.50
2022-10-17T20:15:59.856Z,3.73
2022-10-17T20:18:28.192Z,3.60
2022-10-17T20:20:56.315Z,4.50
2022-10-17T20:23:25.323Z,4.37
2022-10-17T20:26:13.190Z,4.43
2022-10-17T20:28:47.301Z,5.10
2022-10-17T20:31:15.943Z,4.40
2022-10-17T20:33:43.489Z,5.10
2022-10-17T20:36:14.046Z,4.30
2022-10-17T20:38:42.977Z,5.13
2022-10-17T20:41:11.446Z,5.10
2022-10-17T20:43:40.571Z,4.93
2022-10-17T20:46:22.787Z,4.53
2022-10-17T20:48:58.285Z,4.77
2022-10-17T20:51:39.030Z,4.57
2022-10-17T20:54:07.985Z,4.63
2022-10-17T20:56:36.400Z,5.40
2022-10-17T20:59:05.829Z,5.03
2022-10-17T21:01:35.058Z,4.57
2022-10-17T21:04:26.860Z,4.83
2022-10-17T21:06:52.127Z,5.30
2022-10-17T21:09:21.949Z,5.00
2022-10-17T21:11:51.391Z,4.23
2022-10-17T21:14:19.428Z,3.80
2022-10-17T21:16:46.999Z,4.60
2022-10-17T21:19:15.836Z,4.97
2022-10-17T21:21:45.183Z,4.50
2022-10-17T21:24:14.598Z,4.70
2022-10-17T21:26:44.699Z,4.97
2022-10-17T21:29:13.292Z,4.30
2022-10-17T21:31:42.131Z,4.00
2022-10-17T21:34:11.637Z,4.60
2022-10-17T21:36:39.632Z,4.90
2022-10-17T21:39:09.460Z,4.70
2022-10-17T21:41:37.168Z,4.60
2022-10-17T21:44:08.264Z,4.53
2022-10-17T21:46:35.762Z,5.20
2022-10-17T21:49:03.631Z,4.27
2022-10-17T21:51:31.240Z,4.37
2022-10-17T21:53:59.073Z,4.93
2022-10-17T21:56:32.412Z,4.30
2022-10-17T21:59:00.489Z,4.17
2022-10-17T22:01:31.410Z,4.57
2022-10-17T22:04:04.083Z,4.67
2022-10-17T22:06:42.017Z,6.37
2022-10-17T22:09:13.774Z,4.70
2022-10-17T22:11:41.845Z,5.10
2022-10-17T22:14:12.673Z,4.40
2022-10-17T22:16:46.269Z,3.93
2022-10-17T22:19:15.396Z,4.17
2022-10-17T22:21:42.861Z,5.13
2022-10-17T22:24:12.905Z,4.40
2022-10-17T22:26:40.713Z,4.40
2022-10-17T22:29:09.161Z,4.60
2022-10-17T22:31:37.243Z,4.80
2022-10-17T22:34:06.870Z,4.53
2022-10-17T22:36:34.713Z,3.90
2022-10-17T22:39:02.499Z,4.63
2022-10-17T22:41:30.062Z,4.90
2022-10-17T22:43:57.682Z,5.20
2022-10-17T22:46:25.465Z,5.10
2022-10-17T22:48:52.926Z,5.87
2022-10-17T22:51:21.700Z,7.00
2022-10-17T22:53:49.217Z,7.13
2022-10-17T22:56:18.946Z,6.07
2022-10-17T22:58:46.731Z,6.37
2022-10-17T23:01:16.787Z,5.43
2022-10-17T23:03:44.765Z,5.50
2022-10-17T23:06:12.380Z,5.90
2022-10-17T23:08:41.620Z,5.10
2022-10-17T23:11:09.397Z,5.20
2022-10-17T23:13:37.324Z,5.97
2022-10-17T23:16:05.227Z,5.40
2022-10-17T23:18:32.730Z,5.40
2022-10-17T23:21:00.197Z,5.80
2022-10-17T23:23:27.667Z,5.60
2022-10-17T23:25:56.471Z,7.33
2022-10-17T23:28:23.960Z,6.73
2022-10-17T23:30:51.465Z,6.50
2022-10-17T23:33:19.041Z,7.23
2022-10-17T23:35:46.509Z,5.50
2022-10-17T23:38:13.967Z,6.33
2022-10-17T23:40:41.976Z,5.70
2022-10-17T23:43:10.828Z,4.50
2022-10-17T23:45:38.264Z,5.30
2022-10-17T23:48:06.249Z,4.33
2022-10-17T23:50:33.705Z,4.07
2022-10-17T23:53:01.152Z,4.83
2022-10-17T23:55:28.874Z,5.20
2022-10-17T23:57:56.353Z,4.77
